Time;durP1;ratioP1;P1;durP2;ratioP2;P2;SDS_P1;SDS_P2;PMS_P1;PMS_P2;Temp;Humidity;BMP_temperature;BMP_pressure;BME280_temperature;BME280_humidity;BME280_pressure;Samples;Min_cycle;Max_cycle;Signal;HPM_P1;HPM_P2
2023/05/27 00:02:06;;;;;;;18.03;12.13;;;;;;;-143.21;86.72;72173.31;4968855;28;20300;-73
2023/05/27 00:04:32;;;;;;;19.77;12.33;;;;;;;-143.21;87.47;72167.38;4971034;28;20201;-72
2023/05/27 00:07:00;;;;;;;23.43;13.00;;;;;;;-143.21;87.94;72175.31;4967872;28;20291;-74
2023/05/27 00:09:28;;;;;;;20.90;12.23;;;;;;;-143.21;88.26;72167.38;4969529;28;20212;-73
2023/05/27 00:11:55;;;;;;;18.87;13.23;;;;;;;-143.21;88.31;72157.44;4966568;28;20876;-73
2023/05/27 00:14:22;;;;;;;21.83;12.50;;;;;;;-143.21;88.15;72153.47;4968269;28;20225;-73
2023/05/27 00:16:51;;;;;;;20.37;12.83;;;;;;;-143.21;88.54;72141.59;4970367;28;20207;-73
2023/05/27 00:19:18;;;;;;;20.27;12.90;;;;;;;-143.21;87.82;72135.63;4968622;28;20284;-74
2023/05/27 00:21:45;;;;;;;22.30;14.07;;;;;;;-143.21;88.09;72133.66;4970023;28;20748;-74
2023/05/27 00:24:12;;;;;;;19.87;13.90;;;;;;;-143.21;87.92;72131.69;4967979;28;20642;-74
2023/05/27 00:26:40;;;;;;;22.73;13.93;;;;;;;-143.21;87.82;72137.63;4969784;28;20225;-74
2023/05/27 00:29:07;;;;;;;23.00;14.20;;;;;;;-143.21;87.92;72133.66;4964670;28;20571;-74
2023/05/27 00:31:34;;;;;;;22.37;14.83;;;;;;;-143.21;87.69;72141.59;4968567;28;20595;-74
2023/05/27 00:34:01;;;;;;;18.87;13.47;;;;;;;-143.21;87.66;72147.53;4969213;28;20253;-73
2023/05/27 00:36:28;;;;;;;21.77;13.87;;;;;;;-143.21;88.15;72155.47;4964384;28;20307;-73
2023/05/27 00:38:55;;;;;;;18.50;12.60;;;;;;;-143.21;88.98;72169.34;4969270;28;20209;-74
2023/05/27 00:41:24;;;;;;;19.97;12.67;;;;;;;-143.21;89.14;72177.28;4970655;28;20229;-74
2023/05/27 00:43:52;;;;;;;20.67;12.60;;;;;;;-143.21;89.44;72171.34;4967754;28;20656;-74
2023/05/27 00:46:20;;;;;;;17.47;11.83;;;;;;;-143.21;89.58;72165.38;4967625;28;20216;-73
2023/05/27 00:48:48;;;;;;;14.13;10.97;;;;;;;-143.21;89.62;72159.44;4969827;28;20590;-73
2023/05/27 00:51:15;;;;;;;14.73;10.77;;;;;;;-143.21;89.40;72149.53;4966978;28;20638;-74
2023/05/27 00:53:45;;;;;;;12.47;9.17;;;;;;;-143.21;89.50;72131.69;4969941;28;20244;-74
2023/05/27 00:56:15;;;;;;;14.90;8.27;;;;;;;-143.21;88.67;72131.69;4963274;28;20232;-75
2023/05/27 00:58:43;;;;;;;9.50;7.27;;;;;;;-143.21;88.07;72135.63;4970993;28;20227;-74
2023/05/27 01:01:12;;;;;;;8.37;6.57;;;;;;;-143.21;88.49;72135.63;4971065;28;20215;-75
2023/05/27 01:03:41;;;;;;;14.73;7.60;;;;;;;-143.21;89.15;72133.66;4965360;28;20236;-75
2023/05/27 01:06:16;;;;;;;12.27;7.80;;;;;;;-143.21;89.32;72127.72;4971547;28;20240;-74
2023/05/27 01:08:55;;;;;;;13.20;7.83;;;;;;;-143.21;89.87;72125.72;4970659;28;20208;-73
2023/05/27 01:11:29;;;;;;;11.50;7.03;;;;;;;-143.21;90.24;72113.81;4970420;28;20320;-73
2023/05/27 01:14:00;;;;;;;10.20;6.60;;;;;;;-143.21;90.20;72113.81;4970052;28;20212;-73
2023/05/27 01:16:30;;;;;;;9.07;6.90;;;;;;;-143.21;90.10;72111.84;4970183;28;20329;-73
2023/05/27 01:19:02;;;;;;;8.97;6.93;;;;;;;-143.21;90.21;72101.94;4970054;28;20209;-73
2023/05/27 01:21:31;;;;;;;8.37;6.40;;;;;;;-143.21;90.65;72097.97;4970788;28;20216;-73
2023/05/27 01:24:05;;;;;;;9.43;6.93;;;;;;;-143.21;91.08;72095.97;4969234;28;20217;-73
2023/05/27 01:26:32;;;;;;;10.87;7.07;;;;;;;-143.21;91.37;72090.03;4970399;28;20245;-73
2023/05/27 01:28:59;;;;;;;8.87;7.47;;;;;;;-143.21;90.80;72074.16;4970229;28;20291;-74
2023/05/27 01:31:32;;;;;;;9.30;7.47;;;;;;;-143.21;90.74;72070.19;4969849;28;20213;-74
2023/05/27 01:34:05;;;;;;;10.03;7.27;;;;;;;-143.21;91.19;72072.19;4969767;28;20255;-73
2023/05/27 01:36:37;;;;;;;10.60;7.23;;;;;;;-143.21;91.52;72074.16;4969918;28;20225;-74
2023/05/27 01:39:10;;;;;;;10.67;8.07;;;;;;;-143.21;91.71;72068.22;4957825;28;20200;-73
2023/05/27 01:41:38;;;;;;;14.33;9.13;;;;;;;-143.21;92.13;72068.22;4967128;28;20208;-80
2023/05/27 01:44:05;;;;;;;12.13;8.90;;;;;;;-143.21;92.27;72072.19;4972104;28;20291;-81
2023/05/27 01:46:32;;;;;;;12.53;9.63;;;;;;;-143.21;92.37;72072.19;4971991;28;20208;-81
2023/05/27 01:48:59;;;;;;;19.17;11.63;;;;;;;-143.21;92.51;72080.13;4972768;28;20212;-81
2023/05/27 01:51:26;;;;;;;16.67;13.53;;;;;;;-143.21;92.37;72090.03;4973528;28;20658;-81
2023/05/27 01:53:53;;;;;;;16.80;12.73;;;;;;;-143.21;92.58;72094.00;4973741;28;20668;-82
2023/05/27 01:56:22;;;;;;;18.40;12.70;;;;;;;-143.21;92.42;72097.97;4972864;28;20228;-82
2023/05/27 01:58:49;;;;;;;19.03;12.07;;;;;;;-143.21;92.19;72094.00;4972052;28;20209;-82
2023/05/27 02:01:15;;;;;;;15.40;12.43;;;;;;;-143.21;91.92;72092.00;4971977;28;20212;-82
2023/05/27 02:03:42;;;;;;;15.60;11.93;;;;;;;-143.21;91.74;72095.97;4964232;28;20209;-82
2023/05/27 02:06:09;;;;;;;17.53;11.40;;;;;;;-143.21;91.94;72101.94;4972102;28;20239;-82
2023/05/27 02:08:36;;;;;;;17.50;11.47;;;;;;;-143.21;91.76;72101.94;4971716;28;20635;-82
2023/05/27 02:11:02;;;;;;;17.40;11.53;;;;;;;-143.21;92.09;72105.91;4971502;28;20216;-82
2023/05/27 02:13:31;;;;;;;16.10;11.43;;;;;;;-143.21;91.76;72107.88;4968290;28;20223;-82
2023/05/27 02:15:57;;;;;;;18.87;12.07;;;;;;;-143.21;91.66;72107.88;4970683;28;20751;-82
2023/05/27 02:18:25;;;;;;;15.87;11.60;;;;;;;-143.21;91.98;72103.91;4971251;28;20255;-81
2023/05/27 02:20:52;;;;;;;14.87;10.80;;;;;;;-143.21;92.08;72111.84;4971424;28;20227;-81
2023/05/27 02:23:18;;;;;;;16.00;11.83;;;;;;;-143.21;92.28;72105.91;4971531;28;20205;-81
2023/05/27 02:25:45;;;;;;;17.97;12.37;;;;;;;-143.21;92.01;72113.81;4971160;28;20216;-82
2023/05/27 02:28:12;;;;;;;15.73;12.17;;;;;;;-143.21;91.50;72117.78;4970621;28;20238;-80
2023/05/27 02:30:40;;;;;;;14.90;11.30;;;;;;;-143.21;91.21;72125.72;4968730;28;20730;-81
2023/05/27 02:33:07;;;;;;;15.87;11.53;;;;;;;-143.21;91.41;72131.69;4966575;28;20232;-81
2023/05/27 02:35:34;;;;;;;16.63;11.07;;;;;;;-143.21;91.79;72145.56;4970241;28;20224;-80
2023/05/27 02:38:01;;;;;;;17.70;11.77;;;;;;;-143.21;91.90;72141.59;4970538;28;20285;-80
2023/05/27 02:40:29;;;;;;;17.30;11.07;;;;;;;-143.21;91.81;72137.63;4969851;28;20212;-73
2023/05/27 02:42:57;;;;;;;15.73;11.57;;;;;;;-143.21;91.94;72147.53;4963537;28;20671;-74
2023/05/27 02:45:24;;;;;;;16.27;11.50;;;;;;;-143.21;91.89;72163.41;4950832;28;20621;-75
2023/05/27 02:47:52;;;;;;;16.50;11.37;;;;;;;-143.21;92.39;72163.41;4969396;28;20604;-74
2023/05/27 02:50:19;;;;;;;18.33;12.30;;;;;;;-143.21;92.14;72163.41;4968550;28;20213;-74
2023/05/27 02:52:46;;;;;;;16.97;11.20;;;;;;;-143.21;91.67;72163.41;4968806;28;20632;-73
2023/05/27 02:55:13;;;;;;;15.23;11.10;;;;;;;-143.21;92.06;72175.31;4969514;28;20702;-73
2023/05/27 02:57:39;;;;;;;16.23;10.90;;;;;;;-143.21;92.33;72161.41;4969902;28;20212;-74
2023/05/27 03:00:08;;;;;;;13.97;11.17;;;;;;;-143.21;91.62;72151.50;4968996;28;20216;-74
2023/05/27 03:02:35;;;;;;;13.13;10.30;;;;;;;-143.21;91.55;72151.50;4966941;28;20217;-74
2023/05/27 03:05:05;;;;;;;12.30;10.13;;;;;;;-143.21;90.38;72161.41;4969893;28;20295;-74
2023/05/27 03:07:32;;;;;;;13.77;10.20;;;;;;;-143.21;90.68;72161.41;4969630;28;20212;-74
2023/05/27 03:09:59;;;;;;;12.60;10.10;;;;;;;-143.21;91.08;72161.41;4969496;28;20217;-73
2023/05/27 03:12:26;;;;;;;13.80;10.57;;;;;;;-143.21;92.06;72153.47;4968982;28;20212;-74
2023/05/27 03:14:53;;;;;;;13.50;10.53;;;;;;;-143.21;92.05;72151.50;4968958;28;20228;-74
2023/05/27 03:17:21;;;;;;;14.70;10.83;;;;;;;-143.21;92.08;72145.56;4973227;28;20259;-74
2023/05/27 03:19:48;;;;;;;14.57;10.70;;;;;;;-143.21;91.00;72155.47;4973204;28;20286;-74
2023/05/27 03:22:16;;;;;;;13.70;10.37;;;;;;;-143.21;91.42;72171.34;4972713;28;20212;-74
2023/05/27 03:24:44;;;;;;;16.03;10.40;;;;;;;-143.21;91.76;72193.16;4973288;28;20694;-74
2023/05/27 03:27:11;;;;;;;17.57;10.50;;;;;;;-143.21;91.94;72193.16;4973311;28;20295;-74
2023/05/27 03:29:38;;;;;;;12.80;9.97;;;;;;;-143.21;91.48;72191.16;4973096;28;20627;-74
2023/05/27 03:32:05;;;;;;;16.57;10.73;;;;;;;-143.21;91.07;72185.22;4970363;28;20212;-74
2023/05/27 03:34:32;;;;;;;16.40;11.83;;;;;;;-143.21;91.50;72193.16;4933855;29;20214;-73
2023/05/27 03:36:59;;;;;;;21.17;12.27;;;;;;;-143.21;91.34;72211.00;4934375;29;20889;-74
2023/05/27 03:39:27;;;;;;;19.73;11.80;;;;;;;-143.21;91.79;72211.00;4933625;29;20597;-74
2023/05/27 03:41:53;;;;;;;17.77;12.80;;;;;;;-143.21;91.97;72207.03;4933714;29;20206;-74
2023/05/27 03:44:20;;;;;;;16.77;11.87;;;;;;;-143.21;92.31;72211.00;4934058;29;20244;-74
2023/05/27 03:46:47;;;;;;;15.23;12.30;;;;;;;-143.21;92.55;72214.97;4934102;29;20205;-73
2023/05/27 03:49:14;;;;;;;15.80;11.13;;;;;;;-143.21;92.87;72205.03;4934623;29;20261;-74
2023/05/27 03:51:41;;;;;;;13.97;10.73;;;;;;;-143.21;92.64;72193.16;4934227;29;20210;-74
2023/05/27 03:54:07;;;;;;;12.87;10.13;;;;;;;-143.21;92.66;72193.16;4934246;29;20209;-73
2023/05/27 03:56:35;;;;;;;15.73;10.73;;;;;;;-143.21;92.60;72187.19;4931328;29;20234;-73
2023/05/27 03:59:02;;;;;;;15.80;10.63;;;;;;;-143.21;92.87;72189.19;4934519;29;20206;-74
2023/05/27 04:01:29;;;;;;;12.53;9.53;;;;;;;-143.21;93.08;72187.19;4934250;29;20206;-74
2023/05/27 04:03:56;;;;;;;13.70;9.57;;;;;;;-143.21;92.21;72173.31;4933567;29;20218;-74
2023/05/27 04:06:23;;;;;;;13.53;10.17;;;;;;;-143.21;91.70;72169.34;4934060;29;20198;-75
2023/05/27 04:08:50;;;;;;;11.30;8.87;;;;;;;-143.21;91.31;72163.41;4933440;29;20233;-73
2023/05/27 04:11:16;;;;;;;12.23;9.43;;;;;;;-143.21;90.78;72163.41;4933195;29;20229;-74
2023/05/27 04:13:45;;;;;;;14.97;10.50;;;;;;;-143.21;90.09;72157.44;4933998;29;20666;-74
2023/05/27 04:16:12;;;;;;;13.33;10.13;;;;;;;-143.21;90.29;72155.47;4933467;29;20285;-75
2023/05/27 04:18:39;;;;;;;15.33;10.43;;;;;;;-143.21;90.13;72143.56;4933795;29;20210;-74
2023/05/27 04:21:06;;;;;;;11.60;9.70;;;;;;;-143.21;88.76;72131.69;4934608;29;20213;-82
2023/05/27 04:23:32;;;;;;;11.43;9.40;;;;;;;-143.21;87.46;72141.59;4935353;29;20206;-82
2023/05/27 04:25:59;;;;;;;13.47;9.73;;;;;;;-143.21;88.21;72147.53;4934805;29;20249;-82
2023/05/27 04:28:27;;;;;;;11.10;8.73;;;;;;;-143.21;88.75;72149.53;4935371;29;20210;-83
2023/05/27 04:30:55;;;;;;;12.27;8.47;;;;;;;-143.21;89.13;72147.53;4934964;29;20208;-83
2023/05/27 04:33:22;;;;;;;10.53;8.30;;;;;;;-143.21;88.99;72147.53;4953079;28;20240;-82
2023/05/27 04:35:53;;;;;;;10.63;8.13;;;;;;;-143.21;88.77;72145.56;4971536;28;20228;-82
2023/05/27 04:38:20;;;;;;;10.30;6.73;;;;;;;-143.21;88.79;72135.63;4972641;28;20267;-82
2023/05/27 04:40:52;;;;;;;8.53;7.27;;;;;;;-143.21;87.91;72137.63;4973176;28;20227;-80
2023/05/27 04:43:19;;;;;;;11.17;6.63;;;;;;;-143.21;87.58;72131.69;4973061;28;20211;-81
2023/05/27 04:45:46;;;;;;;8.77;7.00;;;;;;;-143.21;87.38;72123.75;4972867;28;20983;-81
2023/05/27 04:48:15;;;;;;;7.13;6.40;;;;;;;-143.21;86.55;72115.81;4972302;28;20582;-82
2023/05/27 04:50:41;;;;;;;7.00;6.10;;;;;;;-143.21;85.92;72113.81;4970299;28;20213;-82
2023/05/27 04:53:09;;;;;;;9.87;6.87;;;;;;;-143.21;86.23;72099.94;4973548;28;20296;-84
2023/05/27 04:55:35;;;;;;;8.30;6.87;;;;;;;-143.21;85.62;72092.00;4969855;28;20235;-82
2023/05/27 04:58:05;;;;;;;9.87;7.10;;;;;;;-143.21;85.90;72099.94;4969698;28;20683;-82
2023/05/27 05:00:38;;;;;;;9.80;7.67;;;;;;;-143.21;86.39;72097.97;4972568;28;20216;-82
2023/05/27 05:03:07;;;;;;;11.80;7.60;;;;;;;-143.21;86.96;72103.91;4966529;28;20232;-83
2023/05/27 05:05:36;;;;;;;11.00;6.80;;;;;;;-143.21;87.32;72099.94;4968583;28;20205;-82
2023/05/27 05:08:04;;;;;;;8.27;6.70;;;;;;;-143.21;87.06;72101.94;4972211;28;20209;-82
2023/05/27 05:10:31;;;;;;;8.20;6.37;;;;;;;-143.21;87.30;72115.81;4971938;28;20205;-82
2023/05/27 05:12:58;;;;;;;7.83;6.43;;;;;;;-143.21;88.20;72123.75;4972435;28;20555;-81
2023/05/27 05:15:25;;;;;;;8.63;6.30;;;;;;;-143.21;88.28;72147.53;4972633;28;20209;-85
2023/05/27 05:17:51;;;;;;;8.17;6.33;;;;;;;-143.21;89.06;72147.53;4969093;28;20271;-84
2023/05/27 05:20:18;;;;;;;8.67;6.77;;;;;;;-143.21;89.33;72137.63;4972507;28;20272;-84
2023/05/27 05:22:48;;;;;;;9.23;7.03;;;;;;;-143.21;89.52;72155.47;4972155;28;20216;-85
2023/05/27 05:25:15;;;;;;;9.37;7.10;;;;;;;-143.21;89.50;72151.50;4972619;28;20263;-84
2023/05/27 05:27:42;;;;;;;14.13;8.20;;;;;;;-143.21;89.43;72153.47;4972222;28;20556;-84
2023/05/27 05:30:09;;;;;;;9.27;7.33;;;;;;;-143.21;90.18;72149.53;4971460;28;20739;-85
2023/05/27 05:32:36;;;;;;;8.70;7.10;;;;;;;-143.21;90.43;72141.59;4972374;28;20243;-84
2023/05/27 05:35:03;;;;;;;11.13;8.00;;;;;;;-143.21;90.51;72137.63;4965580;28;20575;-82
2023/05/27 05:37:30;;;;;;;11.53;7.90;;;;;;;-143.21;90.15;72125.72;4971163;28;20231;-82
2023/05/27 05:39:58;;;;;;;13.40;7.40;;;;;;;-143.21;90.11;72111.84;4971392;28;20307;-83
2023/05/27 05:42:25;;;;;;;11.53;7.97;;;;;;;-143.21;90.03;72113.81;4972037;28;20213;-83
2023/05/27 05:44:52;;;;;;;10.67;8.07;;;;;;;-143.21;90.58;72101.94;4972013;28;20204;-82
2023/05/27 05:47:19;;;;;;;12.23;8.10;;;;;;;-143.21;90.05;72082.09;4971028;28;20213;-83
2023/05/27 05:49:49;;;;;;;10.00;7.97;;;;;;;-143.21;89.16;72074.16;4970011;28;20193;-83
2023/05/27 05:52:15;;;;;;;12.23;8.03;;;;;;;-143.21;89.05;72074.16;4966815;28;20239;-73
2023/05/27 05:54:42;;;;;;;11.30;8.00;;;;;;;-143.21;89.28;72066.22;4968562;28;20224;-75
2023/05/27 05:57:10;;;;;;;14.33;7.47;;;;;;;-143.21;88.11;72058.31;4965572;28;20703;-82
2023/05/27 05:59:37;;;;;;;11.23;7.27;;;;;;;-143.21;87.57;72076.16;4967823;28;20209;-81
2023/05/27 06:02:04;;;;;;;11.23;7.90;;;;;;;-143.21;87.84;72086.06;4970684;28;20205;-83
2023/05/27 06:04:31;;;;;;;10.90;7.90;;;;;;;-143.21;88.19;72090.03;4971556;28;20232;-82
2023/05/27 06:06:58;;;;;;;10.97;7.80;;;;;;;-143.21;88.54;72097.97;4965590;28;20296;-82
2023/05/27 06:09:25;;;;;;;9.70;8.07;;;;;;;-143.21;88.74;72094.00;4970430;28;20295;-82
2023/05/27 06:11:52;;;;;;;14.10;8.10;;;;;;;-143.21;88.88;72086.06;4971036;28;20291;-82
2023/05/27 06:14:22;;;;;;;10.93;7.70;;;;;;;-143.21;89.06;72084.06;4971069;28;20232;-83
2023/05/27 06:16:49;;;;;;;13.23;7.63;;;;;;;-143.21;89.54;72088.03;4970852;28;20220;-81
2023/05/27 06:19:15;;;;;;;11.93;8.30;;;;;;;-143.21;90.20;72092.00;4969072;28;20657;-81
2023/05/27 06:21:42;;;;;;;12.60;8.60;;;;;;;-143.21;89.80;72076.16;4969707;28;20684;-81
2023/05/27 06:24:09;;;;;;;13.80;8.30;;;;;;;-143.21;88.96;72048.38;4967146;28;20204;-81
2023/05/27 06:26:36;;;;;;;11.23;8.13;;;;;;;-143.21;87.88;72038.47;4967966;28;20224;-81
2023/05/27 06:29:03;;;;;;;15.67;8.40;;;;;;;-143.21;87.38;72044.41;4970637;28;20684;-80
2023/05/27 06:31:32;;;;;;;11.37;9.00;;;;;;;-143.21;87.38;72048.38;4964108;28;20216;-81
2023/05/27 06:33:59;;;;;;;12.33;8.33;;;;;;;-143.21;87.79;72046.41;4970374;28;20225;-87
2023/05/27 06:36:26;;;;;;;10.17;8.50;;;;;;;-143.21;87.32;72038.47;4971745;28;20327;-87
2023/05/27 06:38:54;;;;;;;11.93;8.80;;;;;;;-143.21;87.25;72038.47;4971894;28;20200;-88
2023/05/27 06:41:21;;;;;;;12.40;8.93;;;;;;;-143.21;86.56;72012.69;4971368;28;20216;-88
2023/05/27 06:43:47;;;;;;;14.07;8.63;;;;;;;-143.21;86.87;72022.59;4971504;28;20231;-87
2023/05/27 06:46:14;;;;;;;11.43;8.50;;;;;;;-143.21;87.38;72014.69;4968128;28;20704;-88
2023/05/27 06:48:42;;;;;;;11.10;8.10;;;;;;;-143.21;86.77;71996.81;4966721;28;20196;-87
2023/05/27 06:51:10;;;;;;;11.17;8.23;;;;;;;-143.21;86.10;71990.88;4968229;28;20209;-86
2023/05/27 06:53:36;;;;;;;11.80;8.27;;;;;;;-143.21;86.07;71984.94;4971004;28;20570;-86
2023/05/27 06:56:03;;;;;;;12.97;8.90;;;;;;;-143.21;85.38;71971.06;4971794;28;20225;-86
2023/05/27 06:58:30;;;;;;;14.03;8.93;;;;;;;-143.21;85.71;71965.09;4970605;28;20209;-86
2023/05/27 07:00:57;;;;;;;12.27;8.90;;;;;;;-143.21;84.44;71943.28;4970335;28;20288;-83
2023/05/27 07:03:24;;;;;;;14.70;8.57;;;;;;;-143.21;85.07;71933.38;4970601;28;20204;-82
2023/05/27 07:05:52;;;;;;;14.30;9.30;;;;;;;-143.21;84.99;71921.47;4970983;28;20209;-82
2023/05/27 07:08:19;;;;;;;13.57;9.10;;;;;;;-143.21;84.86;71915.53;4970564;28;20209;-82
2023/05/27 07:10:59;;;;;;;13.00;9.53;;;;;;;-143.21;84.58;71901.66;4968432;28;20279;-82
2023/05/27 07:13:26;;;;;;;16.52;8.98;;;;;;;-143.21;84.64;71887.78;4967868;28;20372;-82
2023/05/27 07:15:53;;;;;;;11.57;8.77;;;;;;;-143.21;84.14;71881.81;4970412;28;20672;-83
2023/05/27 07:18:20;;;;;;;14.00;8.80;;;;;;;-143.21;82.93;71871.91;4970081;28;20836;-83
2023/05/27 07:20:46;;;;;;;17.15;10.05;;;;;;;-143.21;82.99;71873.88;4970886;28;20208;-83
2023/05/27 07:23:15;;;;;;;17.15;10.73;;;;;;;-143.21;82.71;71867.94;4970545;28;20530;-82
2023/05/27 07:25:42;;;;;;;20.92;11.27;;;;;;;-143.21;82.89;71860.00;4969993;28;20642;-83
2023/05/27 07:28:09;;;;;;;21.13;11.35;;;;;;;-143.21;82.01;71858.03;4970640;28;20634;-83
2023/05/27 07:30:35;;;;;;;17.63;11.40;;;;;;;-143.21;81.16;71863.97;4970575;28;20660;-83
2023/05/27 07:33:05;;;;;;;13.30;10.00;;;;;;;-143.21;80.47;71860.00;4970234;28;20244;-82
2023/05/27 07:35:31;;;;;;;15.88;9.52;;;;;;;-143.21;80.58;71858.03;4970496;28;20232;-82
2023/05/27 07:37:58;;;;;;;12.32;9.27;;;;;;;-143.21;80.08;71850.09;4970367;28;20318;-82
2023/05/27 07:40:28;;;;;;;14.38;9.23;;;;;;;-143.21;78.87;71832.25;4971084;28;20216;-82
2023/05/27 07:42:55;;;;;;;13.20;9.50;;;;;;;-143.21;79.21;71828.28;4970017;28;21084;-82
2023/05/27 07:45:22;;;;;;;14.80;9.52;;;;;;;-143.21;79.57;71812.41;4971815;28;20570;-83
2023/05/27 07:47:49;;;;;;;11.07;8.60;;;;;;;-143.21;79.32;71800.53;4968880;28;20683;-82
2023/05/27 07:50:16;;;;;;;13.10;9.38;;;;;;;-143.21;78.95;71796.56;4974913;28;20212;-82
2023/05/27 07:52:42;;;;;;;14.85;9.45;;;;;;;-143.21;79.33;71786.63;4975924;28;20244;-83
2023/05/27 07:55:10;;;;;;;12.68;9.80;;;;;;;-143.21;78.92;71782.69;4976343;28;20672;-82
2023/05/27 07:57:38;;;;;;;17.60;10.27;;;;;;;-143.21;78.34;71764.81;4972700;28;20231;-83
2023/05/27 08:00:06;;;;;;;15.98;9.20;;;;;;;-143.21;78.12;71758.88;4972527;28;20205;-83
2023/05/27 08:02:33;;;;;;;18.30;9.93;;;;;;;-143.21;78.00;71756.91;4973429;28;20609;-84
2023/05/27 08:05:00;;;;;;;14.73;9.30;;;;;;;-143.21;78.02;71746.97;4975050;28;20205;-83
2023/05/27 08:07:27;;;;;;;12.63;10.07;;;;;;;-143.21;76.74;71745.00;4979559;28;20205;-81
2023/05/27 08:09:54;;;;;;;13.40;8.85;;;;;;;-143.21;76.62;71748.97;4979903;28;20204;-82
2023/05/27 08:12:20;;;;;;;14.85;8.32;;;;;;;-143.21;76.33;71748.97;4976864;28;20208;-83
2023/05/27 08:14:49;;;;;;;12.50;8.25;;;;;;;-143.21;76.77;71752.94;4976132;28;20196;-82
2023/05/27 08:17:16;;;;;;;9.57;7.38;;;;;;;-143.21;76.33;71745.00;4979390;28;20263;-83
2023/05/27 08:19:43;;;;;;;13.02;8.23;;;;;;;-143.21;75.90;71741.03;4979512;28;20212;-83
2023/05/27 08:22:10;;;;;;;14.45;7.63;;;;;;;-143.21;75.23;71733.09;4979421;28;20219;-83
2023/05/27 08:24:37;;;;;;;12.55;8.15;;;;;;;-143.21;74.93;71729.13;4981743;28;20204;-83
2023/05/27 08:27:05;;;;;;;12.85;7.90;;;;;;;-143.21;74.41;71723.19;4975073;28;20215;-83
2023/05/27 08:29:32;;;;;;;12.75;7.70;;;;;;;-143.21;74.17;71723.19;4981870;28;20212;-83
2023/05/27 08:32:01;;;;;;;13.15;7.75;;;;;;;-143.21;73.80;71713.28;4973625;28;20208;-82
2023/05/27 08:34:28;;;;;;;14.02;7.18;;;;;;;-143.21;73.31;71707.31;4975325;28;20248;-83
2023/05/27 08:36:55;;;;;;;12.65;7.95;;;;;;;-143.21;73.15;71709.31;4974894;28;20316;-83
2023/05/27 08:39:21;;;;;;;11.15;7.88;;;;;;;-143.21;73.28;71699.41;4979177;28;20200;-83
2023/05/27 08:41:49;;;;;;;9.43;7.20;;;;;;;-143.21;72.82;71695.44;4977004;28;20201;-82
2023/05/27 08:44:16;;;;;;;10.95;7.88;;;;;;;-143.21;72.78;71685.50;4976501;28;20569;-82
2023/05/27 08:46:43;;;;;;;11.73;7.47;;;;;;;-143.21;72.99;71687.50;4975833;28;20202;-83
2023/05/27 08:49:11;;;;;;;13.23;7.80;;;;;;;-143.21;72.90;71681.56;4979739;28;20205;-82
2023/05/27 08:51:41;;;;;;;13.00;7.05;;;;;;;-143.21;71.40;71669.66;4979143;28;20267;-83
2023/05/27 08:54:09;;;;;;;15.90;8.20;;;;;;;-143.21;71.47;71665.69;4976840;28;20212;-83
2023/05/27 08:56:37;;;;;;;14.10;7.80;;;;;;;-143.21;72.09;71661.72;4976293;28;20240;-82
2023/05/27 08:59:04;;;;;;;10.25;8.00;;;;;;;-143.21;71.61;71647.84;4979700;28;20212;-81
2023/05/27 09:01:32;;;;;;;12.52;7.70;;;;;;;-143.21;70.97;71649.81;4978977;28;20227;-82
2023/05/27 09:04:00;;;;;;;12.40;6.25;;;;;;;-143.21;69.00;71677.59;4979211;28;20220;-82
2023/05/27 09:06:28;;;;;;;10.70;6.43;;;;;;;-143.21;69.39;71681.56;4977723;28;20228;-82
2023/05/27 09:08:55;;;;;;;10.27;6.18;;;;;;;-143.21;69.87;71681.56;4977744;28;20219;-82
2023/05/27 09:11:27;;;;;;;7.93;5.97;;;;;;;-143.21;69.65;71683.53;4975738;28;20211;-83
2023/05/27 09:13:55;;;;;;;8.02;5.88;;;;;;;-143.21;70.05;71683.53;4974498;28;20197;-83
2023/05/27 09:16:23;;;;;;;8.98;6.07;;;;;;;-143.21;69.63;71679.56;4975638;28;20232;-85
2023/05/27 09:18:50;;;;;;;10.77;6.35;;;;;;;-143.21;69.61;71689.47;4970720;28;20240;-83
2023/05/27 09:21:17;;;;;;;13.52;6.50;;;;;;;-143.21;68.95;71691.47;4974569;28;20279;-83
2023/05/27 09:23:46;;;;;;;9.48;6.00;;;;;;;-143.21;68.90;71697.41;4975346;28;20561;-83
2023/05/27 09:26:13;;;;;;;8.10;6.15;;;;;;;-143.21;69.45;71709.31;4976629;28;20224;-82
2023/05/27 09:28:40;;;;;;;9.25;5.82;;;;;;;-143.21;69.50;71697.41;4976790;28;20223;-81
2023/05/27 09:31:08;;;;;;;12.65;6.57;;;;;;;-143.21;69.50;71687.50;4973021;28;20236;-81
2023/05/27 09:33:38;;;;;;;10.82;6.10;;;;;;;-143.21;69.91;71675.59;4972338;28;20708;-82
2023/05/27 09:36:07;;;;;;;6.63;5.60;;;;;;;-143.21;69.43;71685.50;4968878;28;20201;-82
2023/05/27 09:38:35;;;;;;;11.52;6.22;;;;;;;-143.21;69.13;71685.50;4968988;28;20232;-82
2023/05/27 09:41:04;;;;;;;9.13;6.13;;;;;;;-143.21;69.16;71685.50;4972746;28;20212;-82
2023/05/27 09:43:31;;;;;;;9.73;6.30;;;;;;;-143.21;69.68;71681.56;4973177;28;20249;-83
2023/05/27 09:46:01;;;;;;;10.38;6.53;;;;;;;-143.21;69.74;71689.47;4973696;28;20296;-83
2023/05/27 09:48:31;;;;;;;12.07;6.30;;;;;;;-143.21;69.90;71687.50;4973020;28;20677;-82
2023/05/27 09:50:58;;;;;;;7.72;6.60;;;;;;;-143.21;68.70;71701.38;4973736;28;20204;-82
2023/05/27 09:53:26;;;;;;;9.95;6.38;;;;;;;-143.21;69.10;71689.47;4973122;28;20223;-83
2023/05/27 09:55:54;;;;;;;9.00;6.40;;;;;;;-143.21;69.37;71665.69;4973198;28;20296;-83
2023/05/27 09:58:23;;;;;;;9.23;6.30;;;;;;;-143.21;69.18;71643.88;4970674;28;20235;-82
2023/05/27 10:00:51;;;;;;;10.20;6.25;;;;;;;-143.21;68.71;71626.03;4973352;28;20204;-82
2023/05/27 10:03:21;;;;;;;9.88;6.72;;;;;;;-143.21;68.55;71598.28;4969179;28;20231;-82
2023/05/27 10:05:50;;;;;;;10.48;6.50;;;;;;;-143.21;67.71;71576.47;4972980;28;20722;-82
2023/05/27 10:08:18;;;;;;;7.45;6.05;;;;;;;-143.21;66.72;71564.56;4966266;28;20202;-83
2023/05/27 10:10:46;;;;;;;8.30;6.32;;;;;;;-143.21;65.77;71538.78;4968613;28;20600;-82
2023/05/27 10:13:14;;;;;;;8.20;6.10;;;;;;;-143.21;65.48;71524.91;4969168;28;20216;-83
2023/05/27 10:15:48;;;;;;;7.72;5.70;;;;;;;-143.21;64.85;71489.22;4958823;28;20284;-82
2023/05/27 10:18:24;;;;;;;13.02;6.90;;;;;;;-143.21;64.34;71461.47;4969338;28;20220;-82
2023/05/27 10:20:51;;;;;;;9.75;6.85;;;;;;;-143.21;64.15;71439.66;4968953;28;20376;-82
2023/05/27 10:23:21;;;;;;;10.43;5.95;;;;;;;-143.21;62.23;71429.75;4969165;28;20196;-81
2023/05/27 10:25:49;;;;;;;6.13;5.20;;;;;;;-143.21;62.00;71431.72;4965297;28;20239;-83
2023/05/27 10:28:27;;;;;;;9.90;5.47;;;;;;;-143.21;62.22;71407.94;4962220;28;20598;-82
2023/05/27 10:31:05;;;;;;;10.18;6.20;;;;;;;-143.21;61.84;71388.09;4969126;28;20209;-83
2023/05/27 10:33:34;;;;;;;9.55;5.47;;;;;;;-143.21;61.93;71364.31;4969004;28;20231;-82
2023/05/27 10:36:08;;;;;;;10.35;5.68;;;;;;;-143.21;61.52;71336.56;4966755;28;20582;-82
2023/05/27 10:38:35;;;;;;;12.50;5.72;;;;;;;-143.21;60.29;71334.59;4967986;28;20742;-82
2023/05/27 10:41:04;;;;;;;9.27;5.65;;;;;;;-143.21;60.95;71314.75;4967652;28;20255;-82
2023/05/27 10:43:33;;;;;;;7.90;5.40;;;;;;;-143.21;59.50;71296.91;4968054;28;20297;-82
2023/05/27 10:46:05;;;;;;;7.88;5.15;;;;;;;-143.21;58.83;71300.88;4960517;28;20201;-83
2023/05/27 10:48:34;;;;;;;6.25;5.20;;;;;;;-143.21;58.84;71273.13;4966272;28;20571;-83
2023/05/27 10:51:01;;;;;;;7.47;4.97;;;;;;;-143.21;57.82;71273.13;4966940;28;20292;-82
2023/05/27 10:53:28;;;;;;;6.85;5.13;;;;;;;-143.21;57.52;71245.38;4966411;28;20647;-82
2023/05/27 10:55:58;;;;;;;7.72;5.40;;;;;;;-143.21;57.70;71235.44;4965632;28;20235;-81
2023/05/27 10:58:25;;;;;;;6.93;4.75;;;;;;;-143.21;56.58;71217.59;4968874;28;20290;-83
2023/05/27 11:00:53;;;;;;;5.95;5.30;;;;;;;-143.21;56.80;71207.69;4967815;28;20204;-83
2023/05/27 11:03:23;;;;;;;7.75;4.80;;;;;;;-143.21;56.40;71203.72;4969054;28;20302;-82
2023/05/27 11:06:05;;;;;;;9.15;5.53;;;;;;;-143.21;56.26;71235.44;4970262;28;20200;-82
2023/05/27 11:08:33;;;;;;;8.35;5.07;;;;;;;-143.21;56.61;71225.53;4964077;28;20201;-84
2023/05/27 11:11:01;;;;;;;6.75;5.30;;;;;;;-143.21;57.71;71247.34;4951305;28;20283;-79
2023/05/27 11:13:40;;;;;;;5.93;5.00;;;;;;;-143.21;57.05;71249.34;4948748;28;20220;-82